Syringa, Virginia
Current Conditions -  °F | °C
As of 11:55 AM on Saturday 25 Oct 2014 (Local Time) from KW75 Reporting Station
Clear Clear  
Wind Chill: 63°   Ceiling: Unl
Heat Index: 63°   Visibility: 10mi
Dew Point: 46°   Wind: 6mph
Humidity: 54%   Direction: 290°WNW
Pressure: 29.97"   Gusts: NA
Location:  37.5982°N, 76.4579°W
Report Text: KW75 251555Z AUTO 29005KT 10SM CLR 17/08 A2997 RMK AO1 T01710076
Loading
Personal Weather Stations






























Interactive Weather Map
Tropical Storm Tracking
New forecast layout! Learn more

10-Day Weather Forecast

Advertisements
Track Severe Weather on mobile